Time;durP1;ratioP1;P1;durP2;ratioP2;P2;SDS_P1;SDS_P2;PMS_P1;PMS_P2;Temp;Humidity;BMP_temperature;BMP_pressure;BME280_temperature;BME280_humidity;BME280_pressure;Samples;Min_cycle;Max_cycle;Signal;HPM_P1;HPM_P2
2023/08/02 00:00:10;;;;;;;17.75;16.42;;;;;;;19.18;100.00;94231.81;5018724;28;20042;-82
2023/08/02 00:02:35;;;;;;;17.20;15.90;;;;;;;19.24;100.00;94233.47;5019920;28;20037;-82
2023/08/02 00:05:01;;;;;;;17.17;15.68;;;;;;;19.29;100.00;94223.06;5019873;28;20115;-82
2023/08/02 00:07:26;;;;;;;18.25;16.73;;;;;;;19.23;100.00;94226.63;5017838;28;20026;-80
2023/08/02 00:09:52;;;;;;;16.48;15.30;;;;;;;19.22;100.00;94246.06;5018387;28;20021;-81
2023/08/02 00:12:17;;;;;;;17.00;15.60;;;;;;;19.25;100.00;94250.84;5017654;28;20157;-81
2023/08/02 00:14:43;;;;;;;16.92;15.60;;;;;;;19.32;100.00;94233.09;5018409;28;20033;-82
2023/08/02 00:17:08;;;;;;;18.88;17.20;;;;;;;19.22;100.00;94240.81;5019093;28;20037;-81
2023/08/02 00:19:35;;;;;;;18.17;16.88;;;;;;;19.22;100.00;94240.81;5019818;28;20092;-83
2023/08/02 00:22:01;;;;;;;17.58;16.30;;;;;;;19.32;100.00;94235.72;5017969;28;20025;-82
2023/08/02 00:24:26;;;;;;;17.90;16.50;;;;;;;19.36;100.00;94236.03;5001707;28;20033;-82
2023/08/02 00:26:52;;;;;;;16.58;15.20;;;;;;;19.40;100.00;94237.13;5018260;28;20026;-79
2023/08/02 00:29:17;;;;;;;18.15;16.92;;;;;;;19.39;100.00;94246.03;5017742;28;20025;-81
2023/08/02 00:31:43;;;;;;;18.65;17.15;;;;;;;19.28;100.00;94260.06;5017628;28;20111;-83
2023/08/02 00:34:08;;;;;;;18.50;17.10;;;;;;;19.36;100.00;94257.03;5018970;28;20096;-80
2023/08/02 00:36:34;;;;;;;17.65;16.23;;;;;;;19.35;100.00;94247.56;5019301;28;20095;-82
2023/08/02 00:38:59;;;;;;;17.50;16.40;;;;;;;19.38;100.00;94237.38;5021067;28;20030;-82
2023/08/02 00:41:25;;;;;;;18.13;16.60;;;;;;;19.32;100.00;94255.94;5023609;28;20041;-81
2023/08/02 00:43:50;;;;;;;18.27;16.98;;;;;;;19.21;100.00;94260.22;5021541;28;20033;-82
2023/08/02 00:46:18;;;;;;;16.00;14.80;;;;;;;19.22;100.00;94258.41;5023217;28;20084;-80
2023/08/02 00:48:45;;;;;;;17.73;16.52;;;;;;;19.21;100.00;94254.97;5021423;28;20032;-81
2023/08/02 00:51:12;;;;;;;19.38;17.98;;;;;;;19.06;100.00;94270.50;5002239;28;20044;-85
2023/08/02 00:53:38;;;;;;;18.58;17.02;;;;;;;19.10;100.00;94268.22;5005643;28;20032;-85
2023/08/02 00:56:04;;;;;;;18.00;16.70;;;;;;;18.96;100.00;94301.84;5021172;28;20542;-82
2023/08/02 00:58:29;;;;;;;18.50;17.25;;;;;;;19.02;100.00;94306.16;5023119;28;20100;-82
2023/08/02 01:00:55;;;;;;;17.95;16.45;;;;;;;19.00;100.00;94297.72;5020991;28;20113;-86
2023/08/02 01:03:20;;;;;;;17.95;16.73;;;;;;;18.95;100.00;94301.06;5021216;28;20051;-81
2023/08/02 01:05:58;;;;;;;18.85;17.55;;;;;;;19.03;100.00;94302.50;5021417;28;20414;-83
2023/08/02 01:08:30;;;;;;;17.30;15.93;;;;;;;19.16;100.00;94260.16;5003727;28;20066;-84
2023/08/02 01:11:10;;;;;;;17.88;16.67;;;;;;;19.23;100.00;94239.00;5017671;28;20128;-81
2023/08/02 01:13:40;;;;;;;18.45;17.25;;;;;;;19.31;100.00;94252.50;5020216;28;20033;-81
2023/08/02 01:16:06;;;;;;;20.10;18.15;;;;;;;19.24;100.00;94262.38;5021314;28;20025;-79
2023/08/02 01:18:32;;;;;;;19.35;17.95;;;;;;;18.95;100.00;94268.75;5021084;28;20033;-84
2023/08/02 01:20:57;;;;;;;17.17;15.70;;;;;;;19.21;100.00;94267.31;5020018;28;20387;-83
2023/08/02 01:23:23;;;;;;;18.10;16.80;;;;;;;19.24;100.00;94245.81;5023235;28;20033;-78
2023/08/02 01:25:49;;;;;;;17.48;16.17;;;;;;;19.31;100.00;94241.19;5019336;28;20760;-79
2023/08/02 01:28:17;;;;;;;17.67;16.30;;;;;;;19.18;100.00;94252.84;5022510;28;20244;-80
2023/08/02 01:30:44;;;;;;;18.35;16.88;;;;;;;19.19;100.00;94266.75;5020587;28;20021;-79
2023/08/02 01:33:10;;;;;;;18.52;16.92;;;;;;;19.29;100.00;94254.59;5004738;28;20495;-81
2023/08/02 01:35:36;;;;;;;19.15;17.75;;;;;;;19.43;100.00;94247.16;4990406;28;20040;-80
2023/08/02 01:38:01;;;;;;;17.13;15.85;;;;;;;19.32;100.00;94248.03;5021975;28;20700;-79
2023/08/02 01:40:27;;;;;;;17.38;16.08;;;;;;;19.32;100.00;94250.66;5020810;28;20034;-80
2023/08/02 01:42:52;;;;;;;18.30;17.10;;;;;;;19.19;100.00;94253.63;5022382;28;20506;-84
2023/08/02 01:45:18;;;;;;;19.33;17.60;;;;;;;19.16;100.00;94248.88;5020971;28;20057;-83
2023/08/02 01:47:44;;;;;;;18.35;17.05;;;;;;;19.18;100.00;94262.53;5021015;28;20045;-79
2023/08/02 01:50:09;;;;;;;18.23;16.88;;;;;;;19.14;100.00;94261.41;5020591;28;20041;-80
2023/08/02 01:52:35;;;;;;;18.98;17.33;;;;;;;19.30;100.00;94260.59;5020639;28;20536;-81
2023/08/02 01:55:00;;;;;;;18.70;17.20;;;;;;;19.24;100.00;94261.56;5020453;28;20045;-81
2023/08/02 01:57:25;;;;;;;17.73;16.23;;;;;;;19.21;100.00;94256.81;5020314;28;20061;-81
2023/08/02 01:59:51;;;;;;;18.40;17.00;;;;;;;19.17;100.00;94267.00;5021562;28;20075;-80
2023/08/02 02:02:17;;;;;;;19.48;17.65;;;;;;;19.19;100.00;94270.19;5020193;28;20112;-80
2023/08/02 02:04:42;;;;;;;18.27;16.95;;;;;;;18.91;100.00;94302.56;5019867;28;20049;-83
2023/08/02 02:07:08;;;;;;;19.00;17.70;;;;;;;18.84;100.00;94312.44;5022303;28;20033;-81
2023/08/02 02:09:33;;;;;;;19.45;17.98;;;;;;;18.93;100.00;94300.50;5021060;28;20028;-81
2023/08/02 02:11:59;;;;;;;17.30;16.02;;;;;;;18.94;100.00;94311.81;5022135;28;20828;-83
2023/08/02 02:14:24;;;;;;;17.63;16.42;;;;;;;18.77;100.00;94324.09;5019620;28;20022;-85
2023/08/02 02:16:49;;;;;;;19.02;17.58;;;;;;;18.79;100.00;94317.56;5021436;28;20017;-81
2023/08/02 02:19:15;;;;;;;19.05;17.40;;;;;;;18.70;100.00;94331.31;5019368;28;20030;-84
2023/08/02 02:21:41;;;;;;;19.15;17.65;;;;;;;18.83;100.00;94313.44;5020289;28;20103;-84
2023/08/02 02:24:06;;;;;;;19.58;18.05;;;;;;;18.81;100.00;94312.09;5021555;28;20152;-83
2023/08/02 02:26:32;;;;;;;19.55;18.15;;;;;;;18.82;100.00;94321.56;5019485;28;20029;-81
2023/08/02 02:28:57;;;;;;;20.00;18.60;;;;;;;18.66;100.00;94344.09;5020337;28;20113;-82
2023/08/02 02:31:23;;;;;;;18.58;17.27;;;;;;;18.72;100.00;94337.91;5020602;28;20024;-82
2023/08/02 02:33:49;;;;;;;21.05;19.48;;;;;;;18.66;100.00;94348.56;5003530;28;20022;-81
2023/08/02 02:36:15;;;;;;;19.63;18.10;;;;;;;18.87;100.00;94317.19;5019043;28;20554;-80
2023/08/02 02:38:40;;;;;;;19.92;16.48;;;;;;;18.64;100.00;94329.63;5019622;28;20132;-82
2023/08/02 02:41:05;;;;;;;17.75;16.35;;;;;;;18.70;100.00;94331.31;5019056;28;20068;-83
2023/08/02 02:43:31;;;;;;;18.08;16.80;;;;;;;18.83;100.00;94316.06;5018928;28;20120;-81
2023/08/02 02:45:56;;;;;;;18.80;17.42;;;;;;;18.96;100.00;94307.09;5021541;28;20022;-82
2023/08/02 02:48:22;;;;;;;17.48;16.23;;;;;;;18.91;100.00;94305.19;5020011;28;20402;-83
2023/08/02 02:50:47;;;;;;;17.38;15.93;;;;;;;18.88;100.00;94310.09;5021223;28;20033;-84
2023/08/02 02:53:13;;;;;;;18.13;16.73;;;;;;;18.95;100.00;94322.06;5002918;28;20067;-84
2023/08/02 02:55:38;;;;;;;20.23;18.63;;;;;;;18.92;100.00;94319.09;5019216;28;20572;-85
2023/08/02 02:58:04;;;;;;;17.95;16.48;;;;;;;19.01;100.00;94294.03;5019526;28;20049;-83
2023/08/02 03:00:31;;;;;;;66.93;54.25;;;;;;;18.86;100.00;94293.81;5017261;28;20426;-82
2023/08/02 03:02:58;;;;;;;63.92;53.80;;;;;;;18.90;100.00;94313.31;5002769;28;20063;-81
2023/08/02 03:05:23;;;;;;;52.63;46.10;;;;;;;18.89;100.00;94316.94;5001396;28;20045;-82
2023/08/02 03:07:49;;;;;;;51.33;43.85;;;;;;;18.90;100.00;94315.94;5019763;28;20095;-81
2023/08/02 03:10:14;;;;;;;36.03;32.33;;;;;;;18.68;100.00;94336.81;5018538;28;20026;-80
2023/08/02 03:12:40;;;;;;;32.05;29.05;;;;;;;18.74;100.00;94346.38;5020684;28;20037;-80
2023/08/02 03:15:06;;;;;;;26.23;21.42;;;;;;;18.66;100.00;94338.84;5018570;28;20499;-83
2023/08/02 03:17:32;;;;;;;26.80;24.50;;;;;;;18.84;100.00;94327.38;5020515;28;20453;-83
2023/08/02 03:19:57;;;;;;;22.27;20.15;;;;;;;18.74;100.00;94342.94;5020544;28;20032;-83
2023/08/02 03:22:23;;;;;;;19.92;18.52;;;;;;;18.61;100.00;94353.72;5020265;28;20065;-83
2023/08/02 03:24:48;;;;;;;18.73;17.13;;;;;;;18.51;100.00;94358.78;5020723;28;20037;-82
2023/08/02 03:27:14;;;;;;;19.27;17.40;;;;;;;18.49;100.00;94364.25;5018150;28;20025;-83
2023/08/02 03:29:39;;;;;;;18.85;17.40;;;;;;;18.52;100.00;94357.75;5019196;28;20028;-84
2023/08/02 03:32:05;;;;;;;20.10;18.35;;;;;;;18.52;100.00;94363.00;5001933;28;20116;-83
2023/08/02 03:34:31;;;;;;;18.98;17.58;;;;;;;18.59;100.00;94347.94;5001955;28;20072;-82
2023/08/02 03:36:56;;;;;;;19.20;16.55;;;;;;;18.72;100.00;94342.41;5018881;28;20029;-83
2023/08/02 03:39:22;;;;;;;18.25;16.88;;;;;;;18.89;100.00;94330.88;5019344;28;20029;-85
2023/08/02 03:41:47;;;;;;;19.92;18.45;;;;;;;18.99;100.00;94327.63;5017753;28;20483;-82
2023/08/02 03:44:12;;;;;;;19.58;17.75;;;;;;;19.06;100.00;94320.41;5014677;28;20026;-86
2023/08/02 03:46:38;;;;;;;21.63;19.92;;;;;;;19.17;100.00;94306.38;5015050;28;20037;-85
2023/08/02 03:49:03;;;;;;;21.00;19.15;;;;;;;19.29;100.00;94309.72;5017941;28;20862;-84
2023/08/02 03:51:29;;;;;;;22.48;20.13;;;;;;;19.56;100.00;94296.72;5019039;28;20037;-85
2023/08/02 03:53:54;;;;;;;21.38;19.60;;;;;;;19.86;100.00;94278.75;5019793;28;20621;-86
2023/08/02 03:56:20;;;;;;;20.40;18.08;;;;;;;19.84;100.00;94272.16;5017799;28;20033;-84
2023/08/02 03:58:46;;;;;;;17.38;16.08;;;;;;;20.03;100.00;94260.28;5018029;28;20029;-85
2023/08/02 04:01:12;;;;;;;18.75;17.42;;;;;;;19.89;100.00;94282.72;5019389;28;20118;-85
2023/08/02 04:03:37;;;;;;;22.70;21.00;;;;;;;19.80;100.00;94292.06;5018268;28;20057;-83
2023/08/02 04:06:02;;;;;;;21.75;20.15;;;;;;;20.07;100.00;94263.22;5019322;28;20025;-85
2023/08/02 04:08:29;;;;;;;20.90;19.40;;;;;;;20.24;100.00;94272.59;5020631;28;20034;-85
2023/08/02 04:10:55;;;;;;;20.20;18.70;;;;;;;20.32;100.00;94263.50;5021573;28;20024;-85
2023/08/02 04:13:20;;;;;;;21.27;19.30;;;;;;;20.56;100.00;94258.72;5006326;28;20033;-86
2023/08/02 04:15:46;;;;;;;18.77;17.38;;;;;;;21.37;100.00;94224.09;5020430;28;20040;-85
2023/08/02 04:18:11;;;;;;;16.73;15.55;;;;;;;21.22;100.00;94216.13;5022403;28;20041;-86
2023/08/02 04:20:40;;;;;;;15.88;14.80;;;;;;;20.93;100.00;94226.13;5022172;28;20091;-86
2023/08/02 04:23:05;;;;;;;16.65;15.30;;;;;;;20.89;100.00;94237.44;5022420;28;20041;-85
2023/08/02 04:25:31;;;;;;;15.50;14.20;;;;;;;20.99;100.00;94255.97;5024027;28;20459;-85
2023/08/02 04:27:56;;;;;;;15.25;14.10;;;;;;;21.35;100.00;94247.25;5021511;28;20064;-85
2023/08/02 04:30:22;;;;;;;15.40;14.20;;;;;;;22.09;100.00;94233.91;5005427;28;20061;-84
2023/08/02 04:32:47;;;;;;;13.23;12.32;;;;;;;22.96;100.00;94211.88;5024148;28;20124;-86
2023/08/02 04:35:13;;;;;;;12.13;11.32;;;;;;;24.44;100.00;94182.03;5024790;28;20053;-85
2023/08/02 04:37:38;;;;;;;12.10;11.35;;;;;;;23.91;100.00;94186.28;5024216;28;20025;-85
2023/08/02 04:40:06;;;;;;;11.15;10.25;;;;;;;24.02;100.00;94190.44;5014279;28;20044;-85
2023/08/02 04:42:31;;;;;;;11.73;11.00;;;;;;;23.21;100.00;94196.03;5021858;28;20490;-85
2023/08/02 04:44:57;;;;;;;11.57;10.88;;;;;;;23.02;100.00;94198.41;5024125;28;20052;-86
2023/08/02 04:47:22;;;;;;;12.10;11.38;;;;;;;23.47;100.00;94189.63;5007355;28;20466;-86
2023/08/02 04:49:47;;;;;;;11.27;10.57;;;;;;;24.96;100.00;94174.22;5025204;28;20024;-86
2023/08/02 04:52:13;;;;;;;11.30;10.55;;;;;;;26.83;96.07;94195.88;5007604;28;20106;-88
2023/08/02 04:54:38;;;;;;;9.05;8.43;;;;;;;27.83;86.69;94178.41;5023940;28;20037;-86
2023/08/02 04:57:04;;;;;;;9.40;8.70;;;;;;;27.95;86.25;94182.13;5024135;28;20026;-89
2023/08/02 04:59:29;;;;;;;9.65;8.77;;;;;;;25.79;93.87;94187.16;5025878;28;20033;-89
2023/08/02 05:01:55;;;;;;;9.18;8.57;;;;;;;24.53;100.00;94193.63;5005573;28;20553;-87
2023/08/02 05:04:20;;;;;;;10.52;9.85;;;;;;;24.15;100.00;94195.19;5024127;28;20422;-88
2023/08/02 05:06:46;;;;;;;9.57;8.98;;;;;;;24.16;100.00;94183.53;5007135;28;20037;-88
2023/08/02 05:09:11;;;;;;;9.93;9.32;;;;;;;24.16;100.00;94191.47;5010159;28;20037;-86
2023/08/02 05:11:40;;;;;;;10.43;9.73;;;;;;;25.60;100.00;94187.13;4995554;28;20629;-89
2023/08/02 05:14:05;;;;;;;8.68;8.18;;;;;;;26.33;91.18;94189.41;5010224;28;20688;-87
2023/08/02 05:16:30;;;;;;;9.43;8.63;;;;;;;24.89;100.00;94187.00;5024438;28;20026;-86
2023/08/02 05:18:56;;;;;;;10.02;9.32;;;;;;;24.55;100.00;94179.03;5011157;28;20037;-87
2023/08/02 05:21:23;;;;;;;9.50;8.90;;;;;;;25.28;100.00;94181.59;5017892;28;20033;-87
2023/08/02 05:23:48;;;;;;;8.52;7.93;;;;;;;25.68;96.51;94189.16;5017344;28;20036;-89
2023/08/02 05:26:14;;;;;;;9.20;8.60;;;;;;;25.41;100.00;94199.50;5024874;28;20022;-88
2023/08/02 05:28:40;;;;;;;10.95;10.35;;;;;;;25.23;100.00;94192.28;5026317;28;20068;-89
2023/08/02 05:31:10;;;;;;;10.60;9.90;;;;;;;24.50;100.00;94192.31;5007401;28;20068;-90
2023/08/02 05:33:36;;;;;;;11.10;10.05;;;;;;;24.10;100.00;94206.56;5015645;28;20059;-86
2023/08/02 05:36:01;;;;;;;10.77;10.13;;;;;;;23.91;100.00;94194.22;5023916;28;20041;-88
2023/08/02 05:38:27;;;;;;;12.25;11.32;;;;;;;23.83;100.00;94203.50;5025081;28;20116;-90
2023/08/02 05:40:53;;;;;;;11.75;10.95;;;;;;;23.82;100.00;94198.50;5015030;28;20029;-89
2023/08/02 05:43:19;;;;;;;10.80;10.07;;;;;;;24.11;100.00;94196.78;5024320;28;20037;-90
2023/08/02 05:45:51;;;;;;;11.13;10.43;;;;;;;24.37;100.00;94200.88;5020746;28;20033;-92
2023/08/02 05:48:17;;;;;;;10.80;9.88;;;;;;;24.42;100.00;94206.16;5005891;28;20034;-90
2023/08/02 05:50:42;;;;;;;11.57;10.90;;;;;;;24.14;100.00;94210.25;5004737;28;20496;-90
2023/08/02 05:53:07;;;;;;;11.90;11.20;;;;;;;24.00;100.00;94222.50;5013584;28;20079;-89
2023/08/02 05:55:33;;;;;;;12.20;11.07;;;;;;;23.59;100.00;94211.28;5014062;28;20037;-91
2023/08/02 05:57:58;;;;;;;11.55;10.85;;;;;;;23.79;100.00;94223.63;5018805;28;20037;-88
2023/08/02 06:00:24;;;;;;;11.32;10.57;;;;;;;25.39;100.00;94204.31;5026020;28;20116;-91
2023/08/02 06:02:49;;;;;;;18.45;9.77;;;;;;;27.33;90.66;94209.38;5020477;28;20026;-91
2023/08/02 06:05:15;;;;;;;9.77;9.10;;;;;;;27.58;87.92;94216.97;5026835;28;20115;-93
2023/08/02 06:07:41;;;;;;;10.07;9.38;;;;;;;27.58;87.30;94212.41;5024243;28;20030;-91
2023/08/02 06:10:06;;;;;;;9.45;8.65;;;;;;;28.78;83.44;94215.53;5024212;28;20044;-90
2023/08/02 06:12:32;;;;;;;8.90;8.30;;;;;;;29.37;79.19;94214.41;5024698;28;20984;-89
2023/08/02 06:14:57;;;;;;;8.50;8.00;;;;;;;27.83;85.63;94218.34;5024283;28;20033;-89
2023/08/02 06:17:23;;;;;;;7.88;7.28;;;;;;;29.91;74.98;94220.47;5026184;28;20091;-93
2023/08/02 06:19:48;;;;;;;7.80;7.38;;;;;;;29.98;73.01;94226.16;5024314;28;20117;-91
2023/08/02 06:22:15;;;;;;;8.05;7.50;;;;;;;29.76;78.92;94225.09;5012091;28;20022;-94
2023/08/02 06:24:42;;;;;;;8.05;7.45;;;;;;;32.23;66.86;94213.88;5006677;28;20030;-91
2023/08/02 06:27:08;;;;;;;9.98;8.45;;;;;;;31.91;65.30;94219.06;5022621;28;20113;-90
2023/08/02 06:29:33;;;;;;;8.55;8.05;;;;;;;30.87;70.58;94207.75;5018837;28;20418;-86
2023/08/02 06:31:58;;;;;;;13.05;8.23;;;;;;;29.85;73.05;94211.81;5000054;28;20033;-91
2023/08/02 06:34:24;;;;;;;8.10;7.43;;;;;;;29.01;77.53;94206.47;5005868;28;20029;-89
2023/08/02 06:36:49;;;;;;;8.63;8.13;;;;;;;29.03;83.07;94214.16;5017518;28;20026;-87
2023/08/02 06:39:16;;;;;;;7.97;7.57;;;;;;;30.10;77.45;94215.66;5022411;28;20120;-88
2023/08/02 06:41:41;;;;;;;7.05;6.45;;;;;;;30.82;73.01;94224.72;5006095;28;20026;-91
2023/08/02 06:44:07;;;;;;;7.10;6.60;;;;;;;31.90;70.50;94217.47;5017812;28;20381;-90
2023/08/02 06:46:33;;;;;;;6.77;6.20;;;;;;;32.84;63.94;94214.25;5018443;28;20037;-91
2023/08/02 06:48:58;;;;;;;6.40;6.00;;;;;;;34.86;57.87;94208.25;5024510;28;20025;-89
2023/08/02 07:55:22;;;;;;;14.15;6.63;;;;;;;32.76;61.32;94207.84;4989837;28;20085;-86
2023/08/02 07:57:47;;;;;;;23.73;8.15;;;;;;;32.59;59.30;94207.19;5020245;28;20414;-89
2023/08/02 08:00:13;;;;;;;12.82;7.75;;;;;;;32.75;61.40;94208.19;5013491;28;20124;-86
2023/08/02 08:02:39;;;;;;;8.02;7.40;;;;;;;33.12;58.46;94206.47;5012645;28;20471;-84
2023/08/02 08:05:06;;;;;;;7.13;6.72;;;;;;;33.18;58.25;94207.81;5016320;28;20029;-86
2023/08/02 08:07:47;;;;;;;8.00;7.45;;;;;;;33.06;57.10;94207.75;5053163;28;20392;-92
2023/08/02 08:10:12;;;;;;;8.13;7.13;;;;;;;32.74;56.49;94207.41;5041727;28;20041;-87
2023/08/02 08:12:38;;;;;;;8.30;7.70;;;;;;;32.40;58.52;94206.84;5040595;28;20091;-86
2023/08/02 08:15:05;;;;;;;8.35;7.75;;;;;;;32.91;59.64;94213.75;5040926;28;20390;-86
2023/08/02 08:17:31;;;;;;;8.03;7.53;;;;;;;32.76;56.74;94218.56;5038619;28;20041;-87
2023/08/02 08:19:56;;;;;;;8.20;7.65;;;;;;;32.93;57.74;94211.50;5041365;28;20033;-87
2023/08/02 08:22:28;;;;;;;8.32;7.72;;;;;;;32.71;58.61;94218.78;5041142;28;20021;-87
2023/08/02 08:24:54;;;;;;;8.18;7.60;;;;;;;33.06;57.13;94215.81;5042517;28;20029;-84
2023/08/02 08:27:19;;;;;;;8.07;7.57;;;;;;;32.83;56.53;94220.75;5041221;28;20478;-89
2023/08/02 08:29:45;;;;;;;8.30;7.80;;;;;;;32.71;56.20;94218.00;5040607;28;20074;-85
2023/08/02 08:32:11;;;;;;;8.75;7.53;;;;;;;32.68;57.18;94222.13;5041992;28;20098;-84
2023/08/02 08:34:37;;;;;;;9.30;8.05;;;;;;;33.02;56.80;94223.72;5039353;28;20037;-86
2023/08/02 08:37:03;;;;;;;8.02;7.53;;;;;;;32.98;56.88;94219.34;5023185;28;20029;-85
2023/08/02 08:39:28;;;;;;;7.70;7.25;;;;;;;32.96;55.28;94224.25;5021268;28;20052;-83
2023/08/02 08:41:54;;;;;;;7.70;7.20;;;;;;;32.55;53.73;94223.13;5024327;28;20033;-84
2023/08/02 08:44:19;;;;;;;8.50;7.68;;;;;;;32.05;55.36;94216.94;5039999;28;20556;-86
2023/08/02 08:46:47;;;;;;;7.90;7.07;;;;;;;32.22;57.01;94222.22;5022795;28;20098;-87
2023/08/02 08:49:13;;;;;;;8.13;7.28;;;;;;;32.52;54.62;94213.06;5041701;28;20387;-91
2023/08/02 08:51:41;;;;;;;7.25;6.57;;;;;;;32.22;56.34;94211.50;5038835;28;20037;-87
2023/08/02 08:54:15;;;;;;;6.80;6.20;;;;;;;32.77;55.97;94214.78;5041459;28;20545;-89
2023/08/02 08:56:40;;;;;;;6.57;5.95;;;;;;;32.57;52.49;94212.09;5018699;28;20033;-89
2023/08/02 08:59:07;;;;;;;6.18;5.78;;;;;;;32.38;52.55;94223.25;5033783;28;20495;-91
2023/08/02 09:01:33;;;;;;;5.82;5.32;;;;;;;32.46;52.46;94218.94;5018835;28;20013;-87
2023/08/02 09:03:58;;;;;;;6.45;6.00;;;;;;;32.57;51.36;94214.78;5031609;28;20013;-89
2023/08/02 09:06:24;;;;;;;5.28;4.85;;;;;;;32.66;50.12;94216.28;5030048;28;20056;-86
2023/08/02 09:08:50;;;;;;;5.72;5.18;;;;;;;32.71;49.47;94212.63;5024136;28;20036;-92
2023/08/02 09:11:16;;;;;;;5.88;5.22;;;;;;;32.40;49.51;94214.88;5033270;28;20026;-93
2023/08/02 09:13:42;;;;;;;6.18;4.88;;;;;;;32.51;48.54;94202.63;5012850;28;20542;-87
2023/08/02 09:16:16;;;;;;;5.88;5.38;;;;;;;32.43;51.61;94215.00;5038293;28;20040;-86
2023/08/02 09:18:46;;;;;;;7.03;5.47;;;;;;;32.01;48.34;94207.97;5026970;28;20095;-90
2023/08/02 09:21:14;;;;;;;6.85;5.55;;;;;;;32.44;50.22;94215.78;5026000;28;20491;-87
2023/08/02 09:23:46;;;;;;;6.40;5.88;;;;;;;32.42;48.97;94204.59;5016338;28;20076;-86
2023/08/02 09:26:19;;;;;;;6.80;5.85;;;;;;;32.38;50.61;94207.94;5005684;28;20044;-91
2023/08/02 09:29:06;;;;;;;6.43;5.93;;;;;;;32.77;51.76;94203.25;5006961;28;20036;-92
2023/08/02 09:31:36;;;;;;;6.82;6.32;;;;;;;32.24;47.37;94206.59;5024703;28;20033;-88
2023/08/02 09:34:02;;;;;;;6.70;6.20;;;;;;;31.83;49.09;94197.31;5024188;28;20022;-85
2023/08/02 09:36:33;;;;;;;17.48;9.63;;;;;;;32.26;53.61;94205.19;5010428;28;20021;-87
2023/08/02 09:39:16;;;;;;;23.33;12.25;;;;;;;32.69;52.26;94196.06;5017651;28;20808;-87
2023/08/02 09:41:42;;;;;;;55.63;19.60;;;;;;;32.38;56.70;94207.94;5025432;28;20033;-86
2023/08/02 09:44:08;;;;;;;9.70;7.40;;;;;;;32.34;51.96;94203.53;4993799;28;20029;-85
2023/08/02 09:46:35;;;;;;;7.57;6.97;;;;;;;32.38;53.15;94201.78;5021576;28;20041;-83
2023/08/02 09:49:15;;;;;;;7.22;6.65;;;;;;;32.20;51.84;94203.81;5012643;28;20115;-85
2023/08/02 09:51:43;;;;;;;8.90;6.75;;;;;;;32.17;51.86;94206.34;4994639;28;20037;-83
2023/08/02 09:54:11;;;;;;;28.20;15.27;;;;;;;32.40;53.04;94198.78;5010088;28;20984;-84
2023/08/02 09:56:37;;;;;;;;;;;;;;;32.65;54.87;94201.31;4991544;28;20471;-87
2023/08/02 09:59:04;;;;;;;8.07;6.78;;;;;;;31.10;52.22;94200.34;5022006;28;19979;-86
2023/08/02 10:01:30;;;;;;;16.85;8.98;;;;;;;32.06;54.42;94205.91;5001729;28;20025;-90
2023/08/02 10:03:59;;;;;;;47.40;24.90;;;;;;;32.13;50.91;94194.69;5020509;28;20037;-84
2023/08/02 10:06:30;;;;;;;6.80;6.20;;;;;;;31.55;49.30;94192.72;5024135;28;20430;-83
2023/08/02 10:09:04;;;;;;;6.90;6.30;;;;;;;31.67;50.72;94190.94;5013305;28;20095;-93
2023/08/02 10:11:33;;;;;;;8.00;6.88;;;;;;;32.39;51.98;94192.63;5016563;28;20498;-84
2023/08/02 10:14:00;;;;;;;9.23;7.22;;;;;;;32.30;53.40;94192.66;5016017;28;20405;-83
2023/08/02 10:16:25;;;;;;;7.40;6.53;;;;;;;32.09;52.35;94188.38;5018634;28;20034;-83
2023/08/02 10:18:52;;;;;;;7.38;6.88;;;;;;;31.77;53.37;94187.09;4994763;28;20175;-85
2023/08/02 10:21:18;;;;;;;7.40;6.70;;;;;;;31.39;51.30;94178.25;5022218;28;20063;-84
2023/08/02 10:23:44;;;;;;;10.27;8.57;;;;;;;31.75;55.41;94179.41;5001611;28;20033;-85
2023/08/02 10:26:10;;;;;;;20.80;11.88;;;;;;;32.28;52.15;94172.66;5017588;28;20060;-86
2023/08/02 10:28:36;;;;;;;29.05;15.43;;;;;;;32.30;55.22;94178.50;5005688;28;20453;-89
2023/08/02 10:31:05;;;;;;;8.15;7.20;;;;;;;32.28;55.99;94184.16;5001387;28;20037;-84
2023/08/02 10:33:31;;;;;;;8.10;7.40;;;;;;;32.17;55.47;94182.97;4999934;28;20383;-83
2023/08/02 10:36:04;;;;;;;8.43;7.53;;;;;;;31.88;57.86;94175.69;5001345;28;20080;-83
2023/08/02 10:38:39;;;;;;;12.48;8.60;;;;;;;31.84;56.77;94177.47;5015439;28;20033;-83
2023/08/02 10:41:09;;;;;;;12.18;9.38;;;;;;;31.97;56.99;94180.22;5022132;28;20021;-79
2023/08/02 10:47:32;;;;;;;8.95;7.50;;;;;;;32.22;55.07;94171.28;5011205;28;20048;-83
2023/08/02 10:49:58;;;;;;;8.30;7.13;;;;;;;32.28;54.11;94169.97;4993455;28;20133;-85
2023/08/02 10:52:35;;;;;;;8.45;7.15;;;;;;;32.19;49.63;94158.53;5005917;28;20479;-85
2023/08/02 10:55:09;;;;;;;8.25;7.47;;;;;;;31.85;51.57;94164.84;5012757;28;20120;-85
2023/08/02 10:57:36;;;;;;;7.85;7.25;;;;;;;32.32;52.70;94158.28;5017037;28;20112;-85
2023/08/02 11:00:17;;;;;;;8.38;7.40;;;;;;;32.41;51.71;94160.91;5022009;28;20487;-88
2023/08/02 11:02:48;;;;;;;7.68;7.15;;;;;;;32.28;50.95;94169.97;5005246;28;20056;-85
2023/08/02 11:05:16;;;;;;;7.30;6.70;;;;;;;31.70;49.89;94162.69;5005745;28;20030;-90
2023/08/02 11:07:41;;;;;;;8.45;6.85;;;;;;;31.30;52.04;94156.84;5022284;28;20053;-88
2023/08/02 11:10:07;;;;;;;7.88;7.18;;;;;;;31.81;54.30;94166.59;5022940;28;20037;-88
2023/08/02 11:12:34;;;;;;;7.90;7.25;;;;;;;32.10;54.95;94160.47;5007929;28;20070;-92
2023/08/02 11:15:00;;;;;;;8.48;7.40;;;;;;;32.34;51.45;94155.25;4997234;28;20465;-86
2023/08/02 11:17:25;;;;;;;8.45;7.40;;;;;;;32.31;51.11;94158.59;5004241;28;20030;-87
2023/08/02 11:19:52;;;;;;;9.05;7.72;;;;;;;32.20;52.56;94142.13;5021397;28;20033;-88
2023/08/02 11:22:18;;;;;;;8.32;7.30;;;;;;;32.08;50.37;94160.78;5001220;28;20491;-83
2023/08/02 11:24:46;;;;;;;7.72;7.13;;;;;;;32.42;51.60;94154.44;5019869;28;20036;-84
2023/08/02 11:27:24;;;;;;;7.18;6.47;;;;;;;32.29;48.48;94155.47;5021200;28;20108;-88
2023/08/02 11:30:07;;;;;;;6.70;6.10;;;;;;;32.20;48.58;94152.84;5004016;28;20069;-84
2023/08/02 11:32:33;;;;;;;7.85;5.95;;;;;;;32.32;49.61;94160.16;5004476;28;20487;-84
2023/08/02 11:35:00;;;;;;;6.65;6.05;;;;;;;32.51;49.35;94159.72;5022347;28;20029;-84
2023/08/02 11:37:26;;;;;;;9.60;5.97;;;;;;;32.69;51.00;94159.28;5021493;28;20049;-85
2023/08/02 11:39:57;;;;;;;6.78;6.13;;;;;;;32.67;46.53;94158.03;5014234;28;20558;-89
2023/08/02 11:42:23;;;;;;;8.02;5.85;;;;;;;32.54;47.94;94156.38;5001835;28;20033;-85
2023/08/02 11:44:49;;;;;;;7.88;6.20;;;;;;;32.57;49.13;94155.75;5021994;28;20029;-85
2023/08/02 11:47:14;;;;;;;6.20;5.70;;;;;;;32.50;47.81;94147.41;4999590;28;20029;-85
2023/08/02 11:49:59;;;;;;;6.45;5.93;;;;;;;32.73;47.89;94165.56;5021430;28;20021;-86
2023/08/02 11:52:25;;;;;;;6.88;6.25;;;;;;;32.51;48.49;94147.09;5007382;28;20567;-83
2023/08/02 11:54:52;;;;;;;6.03;5.50;;;;;;;32.50;47.92;94140.16;4999513;28;20041;-84
2023/08/02 11:57:18;;;;;;;6.20;5.15;;;;;;;32.26;47.14;94140.81;5020212;28;20148;-84
2023/08/02 11:59:44;;;;;;;6.50;5.07;;;;;;;32.49;47.71;94138.59;5004115;28;20037;-85
2023/08/02 12:02:28;;;;;;;5.95;4.93;;;;;;;32.03;44.55;94125.31;5024583;28;20037;-85
2023/08/02 12:04:54;;;;;;;5.47;4.95;;;;;;;32.38;45.82;94132.03;5022011;28;20048;-92
2023/08/02 12:07:33;;;;;;;5.13;4.70;;;;;;;32.45;46.26;94132.31;5017982;28;20140;-86
2023/08/02 12:10:01;;;;;;;5.68;5.20;;;;;;;32.28;45.44;94132.44;5018323;28;20041;-86
2023/08/02 12:12:30;;;;;;;5.85;5.05;;;;;;;32.25;45.89;94125.81;5016053;28;20033;-88
2023/08/02 12:14:57;;;;;;;8.90;5.45;;;;;;;32.14;46.10;94130.00;5011355;28;20030;-85
2023/08/02 12:17:23;;;;;;;5.60;5.20;;;;;;;32.27;44.94;94114.78;5017894;28;20029;-85
2023/08/02 12:19:50;;;;;;;5.28;4.75;;;;;;;32.41;45.26;94125.22;5016358;28;20157;-86
2023/08/02 12:22:16;;;;;;;5.13;4.70;;;;;;;32.16;44.33;94130.47;5017919;28;20200;-85
2023/08/02 12:24:42;;;;;;;5.10;4.70;;;;;;;32.23;45.07;94129.97;5020057;28;20056;-83
2023/08/02 12:27:25;;;;;;;5.63;4.80;;;;;;;31.88;44.83;94120.53;5012862;28;20594;-85